Time,TemperatureF,DewpointF,PressureIn,WindDirection,WindDirectionDegrees,WindSpeedMPH,WindSpeedGustMPH,Humidity,HourlyPrecipIn,Conditions,Clouds,dailyrainin,SoftwareType,DateUTC
2013-07-25 00:02:00,63.0,55.6,30.24,NNW,338,2.9,4.7,77,0.10,,,0.00,WUHU216HW,2013-07-25 07:02:00,
2013-07-25 00:07:00,62.8,55.4,30.23,West,270,2.2,6.7,77,0.02,,,0.00,WUHU216HW,2013-07-25 07:07:00,
2013-07-25 00:12:00,62.8,55.8,30.24,West,270,1.8,6.7,78,0.01,,,0.00,WUHU216HW,2013-07-25 07:12:00,
2013-07-25 00:17:00,62.6,55.6,30.24,WSW,248,1.8,6.3,78,0.01,,,0.00,WUHU216HW,2013-07-25 07:17:00,
2013-07-25 00:22:00,62.6,56.0,30.24,SW,225,3.8,4.0,79,0.00,,,0.00,WUHU216HW,2013-07-25 07:22:00,
2013-07-25 00:27:00,62.3,55.3,30.24,West,270,4.0,4.7,78,0.00,,,0.00,WUHU216HW,2013-07-25 07:27:00,
2013-07-25 00:32:00,62.3,55.3,30.23,SW,225,3.4,4.7,78,0.00,,,0.00,WUHU216HW,2013-07-25 07:32:00,
2013-07-25 00:37:00,62.3,55.3,30.23,WSW,248,4.7,6.5,78,0.00,,,0.00,WUHU216HW,2013-07-25 07:37:00,
2013-07-25 00:42:00,62.1,55.2,30.23,WSW,248,2.5,6.5,78,0.00,,,0.00,WUHU216HW,2013-07-25 07:42:00,
2013-07-25 00:47:00,62.3,55.6,30.23,WSW,248,1.3,4.7,79,0.00,,,0.00,WUHU216HW,2013-07-25 07:47:00,
2013-07-25 00:52:00,62.3,55.6,30.23,WNW,293,3.6,4.3,79,0.00,,,0.00,WUHU216HW,2013-07-25 07:52:00,
2013-07-25 00:57:00,62.6,56.0,30.23,WNW,293,2.9,6.5,79,0.00,,,0.00,WUHU216HW,2013-07-25 07:57:00,
2013-07-25 01:02:00,63.0,56.0,30.23,WNW,293,4.0,6.7,78,0.00,,,0.00,WUHU216HW,2013-07-25 08:02:00,
2013-07-25 01:07:00,63.4,56.3,30.24,NNW,338,4.9,7.8,78,0.00,,,0.00,WUHU216HW,2013-07-25 08:07:00,
2013-07-25 01:12:00,63.9,56.5,30.25,NNE,23,4.7,7.8,77,0.00,,,0.00,WUHU216HW,2013-07-25 08:12:00,
2013-07-25 01:17:00,64.4,56.7,30.26,NNW,338,4.7,10.1,76,0.00,,,0.00,WUHU216HW,2013-07-25 08:17:00,
2013-07-25 01:22:00,64.6,56.5,30.26,NNW,338,2.9,10.1,75,0.00,,,0.00,WUHU216HW,2013-07-25 08:22:00,
2013-07-25 01:27:00,64.4,56.7,30.26,North,0,5.4,9.4,76,0.00,,,0.00,WUHU216HW,2013-07-25 08:27:00,
2013-07-25 01:32:00,64.3,56.9,30.26,ENE,68,1.3,5.4,77,0.00,,,0.00,WUHU216HW,2013-07-25 08:32:00,
2013-07-25 01:37:00,64.1,56.7,30.26,NE,45,4.5,5.4,77,0.00,,,0.00,WUHU216HW,2013-07-25 08:37:00,
2013-07-25 01:42:00,63.7,56.7,30.27,NE,45,1.6,4.5,78,0.01,,,0.01,WUHU216HW,2013-07-25 08:42:00,
2013-07-25 01:47:00,63.5,56.9,30.27,NE,45,0.2,4.5,79,0.03,,,0.03,WUHU216HW,2013-07-25 08:47:00,
2013-07-25 01:52:00,63.0,56.7,30.27,East,90,1.1,4.0,80,0.05,,,0.05,WUHU216HW,2013-07-25 08:52:00,
2013-07-25 01:57:00,62.5,56.5,30.27,SE,135,0.9,1.6,81,0.06,,,0.06,WUHU216HW,2013-07-25 08:57:00,
2013-07-25 02:02:00,62.3,57.1,30.27,SE,135,1.8,1.8,83,0.07,,,0.07,WUHU216HW,2013-07-25 09:02:00,
2013-07-25 02:07:00,61.9,56.7,30.27,SSE,158,1.6,3.4,83,0.07,,,0.07,WUHU216HW,2013-07-25 09:07:00,
2013-07-25 02:12:00,61.9,57.1,30.27,SSE,158,1.6,3.4,84,0.07,,,0.07,WUHU216HW,2013-07-25 09:12:00,
2013-07-25 02:17:00,61.9,57.3,30.26,SE,135,0.0,2.7,85,0.07,,,0.07,WUHU216HW,2013-07-25 09:17:00,
2013-07-25 02:22:00,61.7,57.2,30.26,WNW,293,1.8,2.0,85,0.07,,,0.07,WUHU216HW,2013-07-25 09:22:00,
2013-07-25 02:27:00,61.6,57.1,30.26,WNW,293,1.3,2.5,85,0.07,,,0.07,WUHU216HW,2013-07-25 09:27:00,
2013-07-25 02:32:00,61.6,57.3,30.26,WNW,293,0.9,3.1,86,0.07,,,0.07,WUHU216HW,2013-07-25 09:32:00,
2013-07-25 02:37:00,61.6,57.3,30.27,WNW,293,1.3,3.1,86,0.07,,,0.07,WUHU216HW,2013-07-25 09:37:00,
2013-07-25 02:42:00,61.6,57.7,30.26,SW,225,0.9,1.8,87,0.07,,,0.08,WUHU216HW,2013-07-25 09:42:00,
2013-07-25 02:47:00,61.6,57.7,30.26,SW,225,1.3,2.7,87,0.05,,,0.08,WUHU216HW,2013-07-25 09:47:00,
2013-07-25 02:52:00,61.4,57.5,30.26,WNW,293,2.5,3.8,87,0.03,,,0.08,WUHU216HW,2013-07-25 09:52:00,
2013-07-25 02:57:00,61.2,57.3,30.26,WSW,248,3.4,6.0,87,0.02,,,0.08,WUHU216HW,2013-07-25 09:57:00,
2013-07-25 03:02:00,61.0,57.2,30.26,SSW,203,2.7,6.0,87,0.01,,,0.08,WUHU216HW,2013-07-25 10:02:00,
2013-07-25 03:07:00,60.8,57.0,30.26,SW,225,2.0,5.4,87,0.01,,,0.08,WUHU216HW,2013-07-25 10:07:00,
2013-07-25 03:12:00,60.8,57.3,30.25,SW,225,2.9,4.7,88,0.01,,,0.08,WUHU216HW,2013-07-25 10:12:00,
2013-07-25 03:17:00,60.8,57.3,30.25,WNW,293,3.4,6.3,88,0.01,,,0.08,WUHU216HW,2013-07-25 10:17:00,
2013-07-25 03:22:00,60.7,57.2,30.24,West,270,3.4,6.3,88,0.01,,,0.08,WUHU216HW,2013-07-25 10:22:00,
2013-07-25 03:27:00,60.7,57.2,30.24,WSW,248,1.8,4.9,88,0.01,,,0.08,WUHU216HW,2013-07-25 10:27:00,
2013-07-25 03:32:00,60.7,57.2,30.24,West,270,3.1,4.3,88,0.01,,,0.08,WUHU216HW,2013-07-25 10:32:00,
2013-07-25 03:37:00,60.5,57.0,30.25,SW,225,4.0,5.6,88,0.01,,,0.08,WUHU216HW,2013-07-25 10:37:00,
2013-07-25 03:42:00,60.5,57.0,30.25,WSW,248,3.4,6.3,88,0.01,,,0.09,WUHU216HW,2013-07-25 10:42:00,
2013-07-25 03:47:00,60.5,57.2,30.25,SW,225,3.1,8.5,89,0.01,,,0.09,WUHU216HW,2013-07-25 10:47:00,
2013-07-25 03:52:00,60.3,56.8,30.25,West,270,3.1,10.3,88,0.01,,,0.09,WUHU216HW,2013-07-25 10:52:00,
2013-07-25 03:57:00,60.5,57.2,30.25,North,0,4.5,10.3,89,0.01,,,0.09,WUHU216HW,2013-07-25 10:57:00,
2013-07-25 04:02:00,60.5,57.2,30.25,SW,225,4.0,7.4,89,0.01,,,0.09,WUHU216HW,2013-07-25 11:02:00,
2013-07-25 04:07:00,60.5,57.2,30.24,West,270,3.6,7.4,89,0.01,,,0.09,WUHU216HW,2013-07-25 11:07:00,
2013-07-25 04:12:00,60.5,57.0,30.24,SW,225,2.9,6.7,88,0.01,,,0.09,WUHU216HW,2013-07-25 11:12:00,
2013-07-25 04:17:00,60.5,57.0,30.24,WSW,248,3.6,6.5,88,0.01,,,0.09,WUHU216HW,2013-07-25 11:17:00,
2013-07-25 04:22:00,60.5,57.2,30.24,SW,225,2.5,4.7,89,0.01,,,0.09,WUHU216HW,2013-07-25 11:22:00,
2013-07-25 04:27:00,60.7,57.2,30.25,SW,225,1.6,4.7,88,0.01,,,0.09,WUHU216HW,2013-07-25 11:27:00,
2013-07-25 04:32:00,60.7,57.4,30.25,SW,225,2.7,4.7,89,0.01,,,0.09,WUHU216HW,2013-07-25 11:32:00,
2013-07-25 04:37:00,60.7,57.4,30.26,SW,225,3.1,4.7,89,0.01,,,0.09,WUHU216HW,2013-07-25 11:37:00,
2013-07-25 04:42:00,60.7,57.4,30.26,WSW,248,6.7,6.7,89,0.00,,,0.09,WUHU216HW,2013-07-25 11:42:00,
2013-07-25 04:47:00,60.8,57.6,30.26,SSW,203,3.1,6.7,89,0.00,,,0.09,WUHU216HW,2013-07-25 11:47:00,
2013-07-25 04:52:00,60.8,57.6,30.26,SSW,203,7.8,8.5,89,0.00,,,0.09,WUHU216HW,2013-07-25 11:52:00,
2013-07-25 04:57:00,60.8,57.6,30.26,WSW,248,5.1,8.5,89,0.00,,,0.09,WUHU216HW,2013-07-25 11:57:00,
2013-07-25 05:02:00,60.8,57.6,30.26,South,180,2.5,8.3,89,0.00,,,0.09,WUHU216HW,2013-07-25 12:02:00,
2013-07-25 05:07:00,60.7,57.4,30.26,WSW,248,3.4,8.3,89,0.00,,,0.09,WUHU216HW,2013-07-25 12:07:00,
2013-07-25 05:12:00,60.7,57.4,30.26,West,270,3.6,7.4,89,0.01,,,0.10,WUHU216HW,2013-07-25 12:12:00,
2013-07-25 05:17:00,60.5,57.2,30.27,WSW,248,3.8,7.4,89,0.01,,,0.10,WUHU216HW,2013-07-25 12:17:00,
2013-07-25 05:22:00,60.5,57.2,30.27,West,270,3.4,5.8,89,0.01,,,0.10,WUHU216HW,2013-07-25 12:22:00,
2013-07-25 05:27:00,60.3,57.1,30.27,WSW,248,4.0,6.0,89,0.01,,,0.10,WUHU216HW,2013-07-25 12:27:00,
2013-07-25 05:32:00,60.3,57.4,30.27,WSW,248,2.9,6.7,90,0.01,,,0.10,WUHU216HW,2013-07-25 12:32:00,
2013-07-25 05:37:00,60.3,57.4,30.26,NW,315,6.0,7.6,90,0.02,,,0.11,WUHU216HW,2013-07-25 12:37:00,
2013-07-25 05:42:00,60.3,57.4,30.26,WNW,293,2.2,7.6,90,0.02,,,0.11,WUHU216HW,2013-07-25 12:42:00,
2013-07-25 05:47:00,60.3,57.4,30.26,WSW,248,6.5,6.9,90,0.02,,,0.11,WUHU216HW,2013-07-25 12:47:00,
2013-07-25 05:52:00,60.3,57.4,30.26,WNW,293,2.2,7.8,90,0.02,,,0.11,WUHU216HW,2013-07-25 12:52:00,
2013-07-25 05:57:00,60.3,57.4,30.26,WSW,248,5.1,7.8,90,0.02,,,0.11,WUHU216HW,2013-07-25 12:57:00,
2013-07-25 06:02:00,60.5,57.2,30.26,West,270,1.8,6.0,89,0.02,,,0.11,WUHU216HW,2013-07-25 13:02:00,
2013-07-25 06:07:00,60.7,57.4,30.26,South,180,2.9,8.1,89,0.02,,,0.11,WUHU216HW,2013-07-25 13:07:00,
2013-07-25 06:12:00,60.8,57.6,30.26,WSW,248,6.3,8.1,89,0.01,,,0.11,WUHU216HW,2013-07-25 13:12:00,
2013-07-25 06:17:00,61.0,57.8,30.26,WSW,248,4.0,8.5,89,0.01,,,0.11,WUHU216HW,2013-07-25 13:17:00,
2013-07-25 06:22:00,61.2,58.0,30.26,West,270,4.3,8.5,89,0.01,,,0.11,WUHU216HW,2013-07-25 13:22:00,
2013-07-25 06:27:00,61.6,58.3,30.26,South,180,2.5,6.3,89,0.01,,,0.11,WUHU216HW,2013-07-25 13:27:00,
2013-07-25 06:32:00,61.6,58.3,30.26,WSW,248,6.5,6.9,89,0.01,,,0.11,WUHU216HW,2013-07-25 13:32:00,
2013-07-25 06:37:00,61.9,58.4,30.26,West,270,5.6,7.2,88,0.00,,,0.11,WUHU216HW,2013-07-25 13:37:00,
2013-07-25 06:42:00,62.3,58.4,30.26,West,270,5.8,7.2,87,0.00,,,0.11,WUHU216HW,2013-07-25 13:42:00,
2013-07-25 06:47:00,62.5,58.6,30.26,SSW,203,4.9,6.5,87,0.00,,,0.11,WUHU216HW,2013-07-25 13:47:00,
2013-07-25 06:52:00,62.6,58.8,30.27,SW,225,6.0,7.2,87,0.00,,,0.11,WUHU216HW,2013-07-25 13:52:00,
2013-07-25 06:57:00,62.8,59.0,30.27,WSW,248,1.6,7.2,87,0.00,,,0.11,WUHU216HW,2013-07-25 13:57:00,
2013-07-25 07:02:00,62.8,59.0,30.27,WSW,248,5.6,6.7,87,0.00,,,0.11,WUHU216HW,2013-07-25 14:02:00,
2013-07-25 07:07:00,63.0,59.1,30.28,SW,225,7.8,8.7,87,0.00,,,0.11,WUHU216HW,2013-07-25 14:07:00,
2013-07-25 07:12:00,63.0,59.1,30.27,WSW,248,2.5,8.7,87,0.00,,,0.11,WUHU216HW,2013-07-25 14:12:00,
2013-07-25 07:17:00,63.0,59.1,30.28,West,270,2.5,7.8,87,0.00,,,0.11,WUHU216HW,2013-07-25 14:17:00,
2013-07-25 07:22:00,62.8,59.0,30.28,WSW,248,6.3,6.3,87,0.00,,,0.11,WUHU216HW,2013-07-25 14:22:00,
2013-07-25 07:28:00,63.0,59.1,30.28,West,270,4.9,7.4,87,0.00,,,0.11,WUHU216HW,2013-07-25 14:28:00,
2013-07-25 07:32:00,63.2,59.3,30.28,West,270,2.9,7.6,87,0.00,,,0.11,WUHU216HW,2013-07-25 14:32:00,
2013-07-25 07:37:00,63.4,59.5,30.28,WSW,248,3.1,7.6,87,0.00,,,0.11,WUHU216HW,2013-07-25 14:37:00,
2013-07-25 07:42:00,63.7,59.5,30.28,WNW,293,2.5,6.9,86,0.00,,,0.11,WUHU216HW,2013-07-25 14:42:00,
2013-07-25 07:47:00,63.9,59.7,30.28,SW,225,3.6,8.5,86,0.00,,,0.11,WUHU216HW,2013-07-25 14:47:00,
2013-07-25 07:52:00,64.1,59.5,30.28,WSW,248,5.8,8.5,85,0.00,,,0.11,WUHU216HW,2013-07-25 14:52:00,
2013-07-25 07:57:00,64.1,59.5,30.28,WNW,293,2.2,5.8,85,0.00,,,0.11,WUHU216HW,2013-07-25 14:57:00,
2013-07-25 08:02:00,64.6,60.0,30.28,ESE,113,1.1,5.8,85,0.00,,,0.11,WUHU216HW,2013-07-25 15:02:00,
2013-07-25 08:07:00,65.7,61.4,30.28,West,270,2.5,5.4,86,0.00,,,0.11,WUHU216HW,2013-07-25 15:07:00,
2013-07-25 08:12:00,67.0,61.9,30.28,West,270,6.3,8.3,84,0.00,,,0.11,WUHU216HW,2013-07-25 15:12:00,
2013-07-25 08:18:00,68.0,62.4,30.29,WSW,248,3.1,8.3,82,0.00,,,0.11,WUHU216HW,2013-07-25 15:18:00,
2013-07-25 08:23:00,69.3,63.2,30.29,WSW,248,2.2,7.6,81,0.00,,,0.11,WUHU216HW,2013-07-25 15:23:00,
2013-07-25 08:28:00,70.2,63.4,30.29,NW,315,5.4,7.6,79,0.00,,,0.11,WUHU216HW,2013-07-25 15:28:00,
2013-07-25 08:33:00,71.3,62.9,30.28,WSW,248,3.4,7.8,75,0.00,,,0.11,WUHU216HW,2013-07-25 15:33:00,
2013-07-25 08:38:00,72.0,62.9,30.28,SSW,203,4.5,8.9,73,0.00,,,0.11,WUHU216HW,2013-07-25 15:38:00,
2013-07-25 08:43:00,72.5,63.5,30.28,WNW,293,4.0,8.9,73,0.00,,,0.11,WUHU216HW,2013-07-25 15:43:00,
2013-07-25 08:48:00,73.3,63.4,30.28,SSW,203,5.4,8.5,71,0.00,,,0.11,WUHU216HW,2013-07-25 15:48:00,
2013-07-25 08:53:00,74.0,64.1,30.28,WNW,293,4.3,5.8,71,0.00,,,0.11,WUHU216HW,2013-07-25 15:53:00,
2013-07-25 08:58:00,74.9,62.7,30.28,WNW,293,4.7,6.7,66,0.00,,,0.11,WUHU216HW,2013-07-25 15:58:00,
2013-07-25 09:03:00,75.4,64.1,30.28,NW,315,3.1,7.6,68,0.00,,,0.11,WUHU216HW,2013-07-25 16:03:00,
2013-07-25 09:08:00,76.0,64.2,30.28,SW,225,3.1,7.6,67,0.00,,,0.11,WUHU216HW,2013-07-25 16:08:00,
2013-07-25 09:13:00,76.7,65.3,30.29,NW,315,2.2,4.9,68,0.00,,,0.11,WUHU216HW,2013-07-25 16:13:00,
2013-07-25 09:18:00,77.4,65.2,30.28,WNW,293,3.1,5.4,66,0.00,,,0.11,WUHU216HW,2013-07-25 16:18:00,
2013-07-25 09:23:00,78.1,65.0,30.29,NNW,338,2.5,7.6,64,0.00,,,0.11,WUHU216HW,2013-07-25 16:23:00,
2013-07-25 09:28:00,78.5,64.0,30.29,West,270,3.8,7.6,61,0.00,,,0.11,WUHU216HW,2013-07-25 16:28:00,
2013-07-25 09:33:00,79.2,65.5,30.29,WNW,293,3.8,4.7,63,0.00,,,0.11,WUHU216HW,2013-07-25 16:33:00,
2013-07-25 09:38:00,79.7,65.6,30.29,NNW,338,2.2,4.7,62,0.00,,,0.11,WUHU216HW,2013-07-25 16:38:00,
2013-07-25 09:43:00,80.3,65.6,30.29,ESE,113,2.0,3.4,61,0.00,,,0.11,WUHU216HW,2013-07-25 16:43:00,
2013-07-25 09:48:00,80.6,65.0,30.29,WSW,248,3.4,4.7,59,0.00,,,0.11,WUHU216HW,2013-07-25 16:48:00,
2013-07-25 09:53:00,80.6,64.0,30.29,East,90,0.0,4.7,57,0.00,,,0.11,WUHU216HW,2013-07-25 16:53:00,
2013-07-25 09:58:00,80.8,65.7,30.29,WNW,293,1.8,4.0,60,0.00,,,0.11,WUHU216HW,2013-07-25 16:58:00,
2013-07-25 10:03:00,81.2,65.0,30.29,North,0,0.0,1.8,58,0.00,,,0.11,WUHU216HW,2013-07-25 17:03:00,
2013-07-25 10:08:00,81.7,64.9,30.29,North,0,0.0,1.8,57,0.00,,,0.11,WUHU216HW,2013-07-25 17:08:00,
2013-07-25 10:13:00,82.4,64.5,30.29,North,0,0.0,0.0,55,0.00,,,0.11,WUHU216HW,2013-07-25 17:13:00,
2013-07-25 10:18:00,83.0,64.0,30.29,North,0,0.0,0.0,53,0.00,,,0.11,WUHU216HW,2013-07-25 17:18:00,
2013-07-25 10:23:00,83.2,63.7,30.30,North,0,0.0,0.0,52,0.00,,,0.11,WUHU216HW,2013-07-25 17:23:00,
2013-07-25 10:28:00,82.8,63.4,30.30,North,0,0.0,0.0,52,0.00,,,0.11,WUHU216HW,2013-07-25 17:28:00,
2013-07-25 10:33:00,83.2,63.2,30.30,North,0,0.0,0.0,51,0.00,,,0.11,WUHU216HW,2013-07-25 17:33:00,
2013-07-25 10:37:00,83.5,63.0,30.30,North,0,0.0,0.0,50,0.00,,,0.11,WUHU216HW,2013-07-25 17:37:00,
2013-07-25 10:43:00,83.2,61.4,30.30,North,0,0.0,0.0,48,0.00,,,0.11,WUHU216HW,2013-07-25 17:43:00,
2013-07-25 10:48:00,83.5,63.6,30.29,North,0,0.0,0.0,51,0.00,,,0.11,WUHU216HW,2013-07-25 17:48:00,
2013-07-25 10:52:00,83.9,64.5,30.29,North,0,0.0,0.0,52,0.00,,,0.11,WUHU216HW,2013-07-25 17:52:00,
2013-07-25 10:57:00,84.4,65.4,30.29,North,0,0.0,0.0,53,0.00,,,0.11,WUHU216HW,2013-07-25 17:57:00,
2013-07-25 11:02:00,84.6,65.1,30.29,North,0,0.0,0.0,52,0.00,,,0.11,WUHU216HW,2013-07-25 18:02:00,
2013-07-25 11:07:00,85.3,65.3,30.29,North,0,0.0,0.0,51,0.00,,,0.11,WUHU216HW,2013-07-25 18:07:00,
2013-07-25 11:13:00,85.5,65.3,30.29,North,0,0.0,0.0,51,0.00,,,0.11,WUHU216HW,2013-07-25 18:13:00,
2013-07-25 11:17:00,85.9,64.5,30.28,North,0,0.0,0.0,49,0.00,,,0.11,WUHU216HW,2013-07-25 18:17:00,
2013-07-25 11:23:00,86.8,66.0,30.29,North,0,0.0,0.0,50,0.00,,,0.11,WUHU216HW,2013-07-25 18:23:00,
2013-07-25 11:27:00,86.8,65.3,30.29,North,0,0.0,0.0,49,0.00,,,0.11,WUHU216HW,2013-07-25 18:27:00,
2013-07-25 11:32:00,86.0,64.1,30.29,North,0,0.0,0.0,48,0.00,,,0.11,WUHU216HW,2013-07-25 18:32:00,
2013-07-25 11:38:00,84.2,61.2,30.29,North,0,0.0,0.0,46,0.00,,,0.11,WUHU216HW,2013-07-25 18:38:00,
2013-07-25 11:43:00,80.5,58.3,30.30,North,0,0.0,0.0,47,0.00,,,0.11,WUHU216HW,2013-07-25 18:43:00,
2013-07-25 11:48:00,77.8,59.2,30.31,North,0,0.0,0.0,53,0.00,,,0.11,WUHU216HW,2013-07-25 18:48:00,
2013-07-25 11:53:00,75.6,62.6,30.29,North,0,0.0,0.0,64,0.01,,,0.12,WUHU216HW,2013-07-25 18:53:00,
2013-07-25 11:58:00,73.8,62.7,30.29,North,0,0.0,0.0,68,0.04,,,0.15,WUHU216HW,2013-07-25 18:58:00,
2013-07-25 12:03:00,72.5,62.3,30.29,North,0,0.0,0.0,70,0.08,,,0.19,WUHU216HW,2013-07-25 19:03:00,
2013-07-25 12:08:00,71.1,60.8,30.30,North,0,0.0,0.0,70,0.12,,,0.23,WUHU216HW,2013-07-25 19:08:00,
2013-07-25 12:13:00,69.5,60.8,30.32,North,0,0.0,0.0,74,0.24,,,0.35,WUHU216HW,2013-07-25 19:13:00,
2013-07-25 12:18:00,65.7,52.8,30.33,North,0,0.0,0.0,63,0.49,,,0.60,WUHU216HW,2013-07-25 19:18:00,
2013-07-25 12:23:00,60.3,52.7,30.31,North,0,0.0,0.0,76,0.65,,,0.76,WUHU216HW,2013-07-25 19:23:00,
2013-07-25 12:28:00,60.3,53.8,30.30,North,0,0.0,0.0,79,0.66,,,0.77,WUHU216HW,2013-07-25 19:28:00,
2013-07-25 12:33:00,61.0,55.5,30.30,North,0,0.0,0.0,82,0.66,,,0.77,WUHU216HW,2013-07-25 19:33:00,
2013-07-25 12:38:00,61.4,56.2,30.31,North,0,0.0,0.0,83,0.67,,,0.78,WUHU216HW,2013-07-25 19:38:00,
2013-07-25 12:43:00,61.7,56.5,30.30,North,0,0.0,0.0,83,0.67,,,0.78,WUHU216HW,2013-07-25 19:43:00,
2013-07-25 12:48:00,61.9,57.1,30.31,North,0,0.0,0.0,84,0.67,,,0.78,WUHU216HW,2013-07-25 19:48:00,
2013-07-25 12:53:00,61.7,57.5,30.31,North,0,0.0,0.0,86,0.66,,,0.78,WUHU216HW,2013-07-25 19:53:00,
2013-07-25 12:58:00,61.6,57.1,30.31,North,0,0.0,0.0,85,0.63,,,0.78,WUHU216HW,2013-07-25 19:58:00,
2013-07-25 13:03:00,61.2,57.0,30.30,North,0,0.0,0.0,86,0.59,,,0.78,WUHU216HW,2013-07-25 20:03:00,
2013-07-25 13:08:00,61.2,57.3,30.29,North,0,0.0,0.0,87,0.55,,,0.78,WUHU216HW,2013-07-25 20:08:00,
2013-07-25 13:13:00,61.2,57.3,30.30,North,0,0.0,0.0,87,0.43,,,0.78,WUHU216HW,2013-07-25 20:13:00,
2013-07-25 13:18:00,61.0,57.2,30.29,North,0,0.0,0.0,87,0.16,,,0.78,WUHU216HW,2013-07-25 20:18:00,
2013-07-25 13:23:00,61.0,57.2,30.29,North,0,0.0,0.0,87,0.02,,,0.78,WUHU216HW,2013-07-25 20:23:00,
2013-07-25 13:28:00,60.8,57.0,30.30,North,0,0.0,0.0,87,0.01,,,0.78,WUHU216HW,2013-07-25 20:28:00,
2013-07-25 13:33:00,60.8,57.0,30.31,North,0,0.0,0.0,87,0.01,,,0.78,WUHU216HW,2013-07-25 20:33:00,
2013-07-25 13:38:00,60.8,57.0,30.31,North,0,0.0,0.0,87,0.00,,,0.78,WUHU216HW,2013-07-25 20:38:00,
2013-07-25 13:43:00,60.7,56.8,30.31,North,0,0.0,0.0,87,0.00,,,0.78,WUHU216HW,2013-07-25 20:43:00,
2013-07-25 13:48:00,60.7,56.8,30.31,North,0,0.0,0.0,87,0.00,,,0.78,WUHU216HW,2013-07-25 20:48:00,
2013-07-25 13:53:00,60.8,57.3,30.30,North,0,0.0,0.0,88,0.00,,,0.78,WUHU216HW,2013-07-25 20:53:00,
2013-07-25 13:58:00,60.8,57.3,30.30,North,0,0.0,0.0,88,0.00,,,0.78,WUHU216HW,2013-07-25 20:58:00,
2013-07-25 14:03:00,61.0,57.5,30.29,North,0,0.0,0.0,88,0.00,,,0.78,WUHU216HW,2013-07-25 21:03:00,
2013-07-25 14:08:00,61.0,57.2,30.29,North,0,0.0,0.0,87,0.00,,,0.78,WUHU216HW,2013-07-25 21:08:00,
2013-07-25 14:13:00,61.0,57.2,30.29,North,0,0.0,0.0,87,0.00,,,0.78,WUHU216HW,2013-07-25 21:13:00,
2013-07-25 14:18:00,61.0,57.2,30.29,North,0,0.0,0.0,87,0.00,,,0.78,WUHU216HW,2013-07-25 21:18:00,
2013-07-25 14:23:00,61.0,57.2,30.29,North,0,0.0,0.0,87,0.00,,,0.78,WUHU216HW,2013-07-25 21:23:00,
2013-07-25 14:28:00,61.2,57.3,30.28,North,0,0.0,0.0,87,0.00,,,0.78,WUHU216HW,2013-07-25 21:28:00,
2013-07-25 14:33:00,61.2,57.3,30.28,North,0,0.0,0.0,87,0.00,,,0.78,WUHU216HW,2013-07-25 21:33:00,
2013-07-25 14:38:00,61.4,57.5,30.28,North,0,0.0,0.0,87,0.00,,,0.78,WUHU216HW,2013-07-25 21:38:00,
2013-07-25 14:43:00,61.6,57.7,30.28,North,0,0.0,0.0,87,0.00,,,0.78,WUHU216HW,2013-07-25 21:43:00,
2013-07-25 14:48:00,61.7,57.9,30.28,North,0,0.0,0.0,87,0.00,,,0.78,WUHU216HW,2013-07-25 21:48:00,
2013-07-25 14:53:00,62.1,58.2,30.28,North,0,0.0,0.0,87,0.00,,,0.78,WUHU216HW,2013-07-25 21:53:00,
2013-07-25 14:58:00,62.3,58.4,30.28,North,0,0.0,0.0,87,0.00,,,0.78,WUHU216HW,2013-07-25 21:58:00,
2013-07-25 15:03:00,62.5,58.9,30.28,North,0,0.0,0.0,88,0.00,,,0.78,WUHU216HW,2013-07-25 22:03:00,
2013-07-25 15:08:00,62.8,59.2,30.29,North,0,0.0,0.0,88,0.00,,,0.78,WUHU216HW,2013-07-25 22:08:00,
2013-07-25 15:13:00,63.2,59.6,30.29,North,0,0.0,0.0,88,0.00,,,0.78,WUHU216HW,2013-07-25 22:13:00,
2013-07-25 15:18:00,63.7,60.1,30.29,North,0,0.0,0.0,88,0.00,,,0.78,WUHU216HW,2013-07-25 22:18:00,
2013-07-25 15:23:00,63.9,60.0,30.29,North,0,0.0,0.0,87,0.00,,,0.78,WUHU216HW,2013-07-25 22:23:00,
2013-07-25 15:28:00,64.1,60.2,30.29,North,0,0.0,0.0,87,0.00,,,0.78,WUHU216HW,2013-07-25 22:28:00,
2013-07-25 15:33:00,64.3,60.4,30.29,North,0,0.0,0.0,87,0.00,,,0.78,WUHU216HW,2013-07-25 22:33:00,
2013-07-25 15:38:00,64.4,60.6,30.30,North,0,0.0,0.0,87,0.00,,,0.78,WUHU216HW,2013-07-25 22:38:00,
2013-07-25 15:43:00,64.6,60.7,30.30,North,0,0.0,0.0,87,0.00,,,0.78,WUHU216HW,2013-07-25 22:43:00,
2013-07-25 15:48:00,64.6,60.4,30.29,North,0,0.0,0.0,86,0.00,,,0.78,WUHU216HW,2013-07-25 22:48:00,
2013-07-25 15:53:00,64.8,60.6,30.29,North,0,0.0,0.0,86,0.00,,,0.78,WUHU216HW,2013-07-25 22:53:00,
2013-07-25 15:58:00,64.8,60.2,30.28,North,0,0.0,0.0,85,0.00,,,0.78,WUHU216HW,2013-07-25 22:58:00,
2013-07-25 16:03:00,64.8,60.2,30.28,North,0,0.0,0.0,85,0.00,,,0.78,WUHU216HW,2013-07-25 23:03:00,
2013-07-25 16:08:00,64.8,60.2,30.28,North,0,0.0,0.0,85,0.00,,,0.78,WUHU216HW,2013-07-25 23:08:00,
2013-07-25 16:13:00,64.8,60.2,30.28,North,0,0.0,0.0,85,0.00,,,0.78,WUHU216HW,2013-07-25 23:13:00,
2013-07-25 16:18:00,64.8,60.2,30.29,North,0,0.0,0.0,85,0.00,,,0.78,WUHU216HW,2013-07-25 23:18:00,
2013-07-25 16:23:00,64.8,59.9,30.29,North,0,0.0,0.0,84,0.00,,,0.78,WUHU216HW,2013-07-25 23:23:00,
2013-07-25 16:28:00,65.2,60.2,30.30,North,0,0.0,0.0,84,0.00,,,0.78,WUHU216HW,2013-07-25 23:28:00,
2013-07-25 16:33:00,65.2,60.2,30.29,North,0,0.0,0.0,84,0.00,,,0.78,WUHU216HW,2013-07-25 23:33:00,
2013-07-25 16:38:00,65.0,60.0,30.29,North,0,0.0,0.0,84,0.00,,,0.78,WUHU216HW,2013-07-25 23:38:00,
2013-07-25 16:43:00,64.8,59.9,30.29,North,0,0.0,0.0,84,0.00,,,0.78,WUHU216HW,2013-07-25 23:43:00,
2013-07-25 16:48:00,64.8,59.9,30.29,North,0,0.0,0.0,84,0.00,,,0.78,WUHU216HW,2013-07-25 23:48:00,
2013-07-25 16:53:00,64.8,59.9,30.29,North,0,0.0,0.0,84,0.00,,,0.78,WUHU216HW,2013-07-25 23:53:00,
2013-07-25 16:58:00,64.8,59.9,30.29,North,0,0.0,0.0,84,0.00,,,0.78,WUHU216HW,2013-07-25 23:58:00,
2013-07-25 17:03:00,64.8,59.9,30.29,North,0,0.0,0.0,84,0.00,,,0.78,WUHU216HW,2013-07-26 00:03:00,
2013-07-25 17:08:00,65.0,60.0,30.29,North,0,0.0,0.0,84,0.00,,,0.78,WUHU216HW,2013-07-26 00:08:00,
2013-07-25 17:13:00,65.0,60.0,30.29,North,0,0.0,0.0,84,0.00,,,0.78,WUHU216HW,2013-07-26 00:13:00,
2013-07-25 17:18:00,65.0,60.0,30.29,North,0,0.0,0.0,84,0.00,,,0.78,WUHU216HW,2013-07-26 00:18:00,
2013-07-25 17:23:00,65.0,59.7,30.29,North,0,0.0,0.0,83,0.00,,,0.78,WUHU216HW,2013-07-26 00:23:00,
2013-07-25 17:28:00,65.0,59.7,30.29,North,0,0.0,0.0,83,0.00,,,0.78,WUHU216HW,2013-07-26 00:28:00,
2013-07-25 17:33:00,65.0,59.7,30.29,North,0,0.0,0.0,83,0.00,,,0.78,WUHU216HW,2013-07-26 00:33:00,
2013-07-25 17:38:00,65.2,59.9,30.29,North,0,0.0,0.0,83,0.00,,,0.78,WUHU216HW,2013-07-26 00:38:00,
2013-07-25 17:43:00,65.2,59.9,30.29,North,0,0.0,0.0,83,0.00,,,0.78,WUHU216HW,2013-07-26 00:43:00,
2013-07-25 17:48:00,65.2,59.9,30.29,North,0,0.0,0.0,83,0.00,,,0.78,WUHU216HW,2013-07-26 00:48:00,
2013-07-25 17:53:00,65.2,59.5,30.29,North,0,0.0,0.0,82,0.00,,,0.78,WUHU216HW,2013-07-26 00:53:00,
2013-07-25 17:58:00,65.0,59.1,30.29,North,0,0.0,0.0,81,0.00,,,0.78,WUHU216HW,2013-07-26 00:58:00,
2013-07-25 18:03:00,65.2,59.2,30.29,North,0,0.0,0.0,81,0.00,,,0.78,WUHU216HW,2013-07-26 01:03:00,
2013-07-25 18:08:00,65.2,58.9,30.29,North,0,0.0,0.0,80,0.00,,,0.78,WUHU216HW,2013-07-26 01:08:00,
2013-07-25 18:13:00,65.2,59.2,30.29,North,0,0.0,0.0,81,0.00,,,0.78,WUHU216HW,2013-07-26 01:13:00,
2013-07-25 18:18:00,65.2,59.2,30.29,North,0,0.0,0.0,81,0.00,,,0.78,WUHU216HW,2013-07-26 01:18:00,
2013-07-25 18:23:00,65.2,58.9,30.29,North,0,0.0,0.0,80,0.00,,,0.78,WUHU216HW,2013-07-26 01:23:00,
2013-07-25 18:28:00,65.2,58.9,30.29,North,0,0.0,0.0,80,0.00,,,0.78,WUHU216HW,2013-07-26 01:28:00,
2013-07-25 18:33:00,65.2,58.9,30.29,North,0,0.0,0.0,80,0.00,,,0.78,WUHU216HW,2013-07-26 01:33:00,
2013-07-25 18:38:00,65.2,58.9,30.29,North,0,0.0,0.0,80,0.00,,,0.78,WUHU216HW,2013-07-26 01:38:00,
2013-07-25 18:43:00,65.2,58.9,30.29,North,0,0.0,0.0,80,0.00,,,0.78,WUHU216HW,2013-07-26 01:43:00,
2013-07-25 18:48:00,65.2,58.9,30.30,North,0,0.0,0.0,80,0.00,,,0.78,WUHU216HW,2013-07-26 01:48:00,
2013-07-25 18:53:00,65.2,58.2,30.30,North,0,0.0,0.0,78,0.00,,,0.78,WUHU216HW,2013-07-26 01:53:00,
2013-07-25 18:58:00,65.5,58.9,30.30,North,0,0.0,0.0,79,0.00,,,0.78,WUHU216HW,2013-07-26 01:58:00,
2013-07-25 19:03:00,65.5,58.9,30.30,North,0,0.0,0.0,79,0.00,,,0.78,WUHU216HW,2013-07-26 02:03:00,
2013-07-25 19:08:00,65.5,58.9,30.30,North,0,0.0,0.0,79,0.00,,,0.78,WUHU216HW,2013-07-26 02:08:00,
2013-07-25 19:13:00,65.3,58.7,30.30,North,0,0.0,0.0,79,0.00,,,0.78,WUHU216HW,2013-07-26 02:13:00,
2013-07-25 19:18:00,65.2,58.5,30.31,North,0,0.0,0.0,79,0.00,,,0.78,WUHU216HW,2013-07-26 02:18:00,
2013-07-25 19:23:00,65.2,58.5,30.31,North,0,0.0,0.0,79,0.00,,,0.78,WUHU216HW,2013-07-26 02:23:00,
2013-07-25 19:28:00,65.0,58.3,30.31,North,0,0.0,0.0,79,0.00,,,0.78,WUHU216HW,2013-07-26 02:28:00,
2013-07-25 19:33:00,65.0,58.7,30.32,North,0,0.0,0.0,80,0.00,,,0.78,WUHU216HW,2013-07-26 02:33:00,
2013-07-25 19:38:00,64.8,58.5,30.32,North,0,0.0,0.0,80,0.00,,,0.78,WUHU216HW,2013-07-26 02:38:00,
2013-07-25 19:43:00,64.8,58.5,30.32,North,0,0.0,0.0,80,0.00,,,0.78,WUHU216HW,2013-07-26 02:43:00,
2013-07-25 19:48:00,64.6,58.3,30.32,North,0,0.0,0.0,80,0.00,,,0.78,WUHU216HW,2013-07-26 02:48:00,
2013-07-25 19:53:00,64.4,58.1,30.31,North,0,0.0,0.0,80,0.00,,,0.78,WUHU216HW,2013-07-26 02:53:00,
2013-07-25 19:58:00,64.4,58.1,30.31,North,0,0.0,0.0,80,0.00,,,0.78,WUHU216HW,2013-07-26 02:58:00,
2013-07-25 20:03:00,64.4,58.1,30.31,North,0,0.0,0.0,80,0.00,,,0.78,WUHU216HW,2013-07-26 03:03:00,
2013-07-25 20:08:00,64.6,58.3,30.31,North,0,0.0,0.0,80,0.00,,,0.78,WUHU216HW,2013-07-26 03:08:00,
2013-07-25 20:13:00,64.8,58.2,30.31,North,0,0.0,0.0,79,0.00,,,0.78,WUHU216HW,2013-07-26 03:13:00,
2013-07-25 20:18:00,65.0,58.3,30.31,North,0,0.0,0.0,79,0.00,,,0.78,WUHU216HW,2013-07-26 03:18:00,
2013-07-25 20:23:00,65.0,58.3,30.30,North,0,0.0,0.0,79,0.00,,,0.78,WUHU216HW,2013-07-26 03:23:00,
2013-07-25 20:28:00,64.8,58.2,30.30,North,0,0.0,0.0,79,0.00,,,0.78,WUHU216HW,2013-07-26 03:28:00,
2013-07-25 20:33:00,64.6,58.0,30.30,North,0,0.0,0.0,79,0.00,,,0.78,WUHU216HW,2013-07-26 03:33:00,
2013-07-25 20:38:00,64.4,58.1,30.30,North,0,0.0,0.0,80,0.00,,,0.78,WUHU216HW,2013-07-26 03:38:00,
2013-07-25 20:43:00,64.4,58.1,30.30,North,0,0.0,0.0,80,0.00,,,0.78,WUHU216HW,2013-07-26 03:43:00,
2013-07-25 20:48:00,64.3,58.0,30.29,North,0,0.0,0.0,80,0.00,,,0.78,WUHU216HW,2013-07-26 03:48:00,
2013-07-25 20:53:00,64.4,58.1,30.29,North,0,0.0,0.0,80,0.00,,,0.78,WUHU216HW,2013-07-26 03:53:00,
2013-07-25 20:58:00,64.4,58.1,30.30,North,0,0.0,0.0,80,0.00,,,0.78,WUHU216HW,2013-07-26 03:58:00,
2013-07-25 21:01:00,64.4,58.1,30.30,North,0,0.0,0.0,80,0.00,,,0.78,WUHU216HW,2013-07-26 04:01:00,
2013-07-25 21:06:00,64.4,58.1,30.30,North,0,0.0,0.0,80,0.00,,,0.78,WUHU216HW,2013-07-26 04:06:00,
2013-07-25 21:11:00,64.4,58.1,30.30,North,0,0.0,0.0,80,0.00,,,0.78,WUHU216HW,2013-07-26 04:11:00,
2013-07-25 21:16:00,64.4,58.1,30.30,North,0,0.0,0.0,80,0.00,,,0.78,WUHU216HW,2013-07-26 04:16:00,
2013-07-25 21:22:00,64.4,58.5,30.31,North,0,0.0,0.0,81,0.00,,,0.78,WUHU216HW,2013-07-26 04:22:00,
2013-07-25 21:27:00,64.8,58.9,30.31,North,0,0.0,0.0,81,0.00,,,0.78,WUHU216HW,2013-07-26 04:27:00,
2013-07-25 21:32:00,65.0,58.7,30.31,North,0,0.0,0.0,80,0.00,,,0.78,WUHU216HW,2013-07-26 04:32:00,
2013-07-25 21:37:00,65.2,58.9,30.32,North,0,0.0,0.0,80,0.00,,,0.78,WUHU216HW,2013-07-26 04:37:00,
2013-07-25 21:42:00,65.2,58.9,30.32,North,0,0.0,0.0,80,0.00,,,0.78,WUHU216HW,2013-07-26 04:42:00,
2013-07-25 21:47:00,65.2,58.9,30.33,North,0,0.0,0.0,80,0.00,,,0.78,WUHU216HW,2013-07-26 04:47:00,
2013-07-25 21:52:00,65.2,58.9,30.33,North,0,0.0,0.0,80,0.00,,,0.78,WUHU216HW,2013-07-26 04:52:00,
2013-07-25 21:57:00,65.0,58.7,30.33,North,0,0.0,0.0,80,0.00,,,0.78,WUHU216HW,2013-07-26 04:57:00,
2013-07-25 22:02:00,65.0,58.7,30.33,North,0,0.0,0.0,80,0.00,,,0.78,WUHU216HW,2013-07-26 05:02:00,
2013-07-25 22:07:00,64.8,58.5,30.33,North,0,0.0,0.0,80,0.00,,,0.78,WUHU216HW,2013-07-26 05:07:00,
2013-07-25 22:12:00,64.8,58.5,30.33,North,0,0.0,0.0,80,0.00,,,0.78,WUHU216HW,2013-07-26 05:12:00,
2013-07-25 22:17:00,64.6,58.7,30.33,North,0,0.0,0.0,81,0.00,,,0.78,WUHU216HW,2013-07-26 05:17:00,
2013-07-25 22:22:00,64.6,58.7,30.33,North,0,0.0,0.0,81,0.00,,,0.78,WUHU216HW,2013-07-26 05:22:00,
2013-07-25 22:27:00,64.4,58.5,30.33,North,0,0.0,0.0,81,0.00,,,0.78,WUHU216HW,2013-07-26 05:27:00,
2013-07-25 22:32:00,64.4,58.5,30.33,North,0,0.0,0.0,81,0.00,,,0.78,WUHU216HW,2013-07-26 05:32:00,
2013-07-25 22:37:00,64.4,58.5,30.33,North,0,0.0,0.0,81,0.00,,,0.78,WUHU216HW,2013-07-26 05:37:00,
2013-07-25 22:42:00,64.6,58.7,30.32,North,0,0.0,0.0,81,0.00,,,0.78,WUHU216HW,2013-07-26 05:42:00,
2013-07-25 22:47:00,64.6,58.7,30.32,North,0,0.0,0.0,81,0.00,,,0.78,WUHU216HW,2013-07-26 05:47:00,
2013-07-25 22:52:00,64.8,58.9,30.32,North,0,0.0,0.0,81,0.00,,,0.78,WUHU216HW,2013-07-26 05:52:00,
2013-07-25 22:57:00,64.8,58.5,30.32,North,0,0.0,0.0,80,0.00,,,0.78,WUHU216HW,2013-07-26 05:57:00,
2013-07-25 23:02:00,64.8,58.5,30.32,North,0,0.0,0.0,80,0.00,,,0.78,WUHU216HW,2013-07-26 06:02:00,
2013-07-25 23:07:00,64.6,58.3,30.32,North,0,0.0,0.0,80,0.00,,,0.78,WUHU216HW,2013-07-26 06:07:00,
2013-07-25 23:12:00,64.6,58.3,30.32,North,0,0.0,0.0,80,0.00,,,0.78,WUHU216HW,2013-07-26 06:12:00,
2013-07-25 23:17:00,64.4,58.1,30.32,North,0,0.0,0.0,80,0.00,,,0.78,WUHU216HW,2013-07-26 06:17:00,
2013-07-25 23:22:00,64.4,58.1,30.32,North,0,0.0,0.0,80,0.00,,,0.78,WUHU216HW,2013-07-26 06:22:00,
2013-07-25 23:27:00,64.4,58.1,30.32,North,0,0.0,0.0,80,0.00,,,0.78,WUHU216HW,2013-07-26 06:27:00,
2013-07-25 23:32:00,64.4,58.1,30.32,North,0,0.0,0.0,80,0.00,,,0.78,WUHU216HW,2013-07-26 06:32:00,
2013-07-25 23:37:00,64.4,58.1,30.32,North,0,0.0,0.0,80,0.00,,,0.78,WUHU216HW,2013-07-26 06:37:00,
2013-07-25 23:42:00,64.4,58.5,30.32,North,0,0.0,0.0,81,0.00,,,0.78,WUHU216HW,2013-07-26 06:42:00,
2013-07-25 23:47:00,64.4,58.5,30.32,North,0,0.0,0.0,81,0.00,,,0.78,WUHU216HW,2013-07-26 06:47:00,
2013-07-25 23:52:00,64.3,58.3,30.32,North,0,0.0,0.0,81,0.00,,,0.78,WUHU216HW,2013-07-26 06:52:00,
2013-07-25 23:57:00,64.3,58.3,30.32,North,0,0.0,0.0,81,0.00,,,0.78,WUHU216HW,2013-07-26 06:57:00,